Dallas, Texas
Current Conditions -  °F | °C
As of 8:53 AM on Saturday 20 Dec 2014 (Local Time) from KDAL Reporting Station
Drizzle Drizzle  
Wind Chill:   Ceiling: 2000
Heat Index:   Visibility: 4mi
Dew Point:   Wind: 5mph
Humidity: 86%   Direction: 30°NNE
Pressure: 30.25"   Gusts: NA
Location:  32.78°N, 96.79°W
Report Text: KDAL 201453Z 03004KT 4SM -DZ BR SCT011 BKN020 OVC024 08/06 A3025 RMK AO2 DZB00 SLP243 P0000 60000 T00780056 51010
Loading
Personal Weather Stations






























Interactive Weather Map New forecast layout! Learn more

10-Day Weather Forecast

Advertisements
Track Severe Weather on mobile